Alexandria, MN (56308)

3:35 PM CDT on August 29, 2016 (GMT -0500)
Burgen Sunrise | | Change Station

Elev 1398 ft 45.86 °N, 95.35 °W | Updated 21 seconds ago

Scattered Clouds
Scattered Clouds
83.1 °F
Feels Like 92 °F
N
5.1
Wind Variable Wind from West
Gusts 7.4 mph

Today
High -- | Low -- °F
--% Chance of Precip.
Yesterday
High -- | Low -- °F
Precip. -- in
Pressure 30.15 in
Visibility 10.0 miles
Clouds Scattered Clouds 2600 ft
Heat Index 92 °F
Dew Point 76 °F
Humidity 80%
Rainfall 2.74 in
Snow Depth Not available.
6:39 AM 8:04 PM
Waning Crescent, 7% visible
METAR KAXN 291953Z AUTO 24011G14KT 10SM SCT026 29/22 A3017 RMK AO2 SLP208 T02890222
Pressure 30.15 in
Visibility 10.0 miles
Clouds Scattered Clouds 2600 ft
Heat Index 92 °F
Dew Point 76 °F
Humidity 80%
Rainfall 2.74 in
Snow Depth Not available.
6:39 AM 8:04 PM
Waning Crescent, 7% visible
METAR KAXN 291953Z AUTO 24011G14KT 10SM SCT026 29/22 A3017 RMK AO2 SLP208 T02890222

10-Day Weather Forecast

Almanac

Astronomy

Aug. 29, 2016 Rise Set
Actual Time
Civil Twilight
Nautical Twilight
Astronomical Twilight
Moon
Length of Visible Light
Length of Day
Tomorrow will be .
, % of the Moon is Illuminated

Today's Extremes

State Highs State Lows

Community

WunderPhotos

Upload Photos

1,935,675 photos uploaded!

WunderBlog® & News

Nearby

Air Quality

  Air Quality AQ Index Pollutant
Not available.

Snow Depth

Station Depth Elevation

Earthquake Activity

City Distance Mag. Time & Date
Minimum magnitude displayed is 2.5.

Coastal Water Temperatures

Place Temperature

Stations

Nearby Weather Stations

Station Location Temp. Windchill Dew Point Humidity Wind Precip. Elev Updated Type
                   

Watches & Warnings

There are currently no watches in effect.